sensor_id;sensor_type;location;lat;lon;timestamp;temperature;humidity
3256;DHT22;1640;48.504;9.224;2022-09-13T00:01:11;16.30;39.50
3256;DHT22;1640;48.504;9.224;2022-09-13T00:03:39;16.00;32.20
3256;DHT22;1640;48.504;9.224;2022-09-13T00:06:08;15.90;27.30
3256;DHT22;1640;48.504;9.224;2022-09-13T00:08:35;15.70;24.50
3256;DHT22;1640;48.504;9.224;2022-09-13T00:11:03;15.60;21.20
3256;DHT22;1640;48.504;9.224;2022-09-13T00:13:32;15.40;15.00
3256;DHT22;1640;48.504;9.224;2022-09-13T00:15:59;15.20;9.40
3256;DHT22;1640;48.504;9.224;2022-09-13T00:18:28;15.10;3.90
3256;DHT22;1640;48.504;9.224;2022-09-13T00:21:07;15.00;1.70
3256;DHT22;1640;48.504;9.224;2022-09-13T00:23:35;14.90;99.90
3256;DHT22;1640;48.504;9.224;2022-09-13T00:26:04;14.80;99.90
3256;DHT22;1640;48.504;9.224;2022-09-13T00:28:33;14.70;99.90
3256;DHT22;1640;48.504;9.224;2022-09-13T00:31:01;14.70;99.90
3256;DHT22;1640;48.504;9.224;2022-09-13T00:33:28;14.60;99.90
3256;DHT22;1640;48.504;9.224;2022-09-13T00:35:56;14.60;99.90
3256;DHT22;1640;48.504;9.224;2022-09-13T00:38:24;14.60;99.90
3256;DHT22;1640;48.504;9.224;2022-09-13T00:40:51;14.60;99.90
3256;DHT22;1640;48.504;9.224;2022-09-13T00:43:20;14.60;99.90
3256;DHT22;1640;48.504;9.224;2022-09-13T00:45:49;14.60;99.90
3256;DHT22;1640;48.504;9.224;2022-09-13T00:48:19;14.60;99.90
3256;DHT22;1640;48.504;9.224;2022-09-13T00:50:50;14.60;99.90
3256;DHT22;1640;48.504;9.224;2022-09-13T00:53:22;14.60;99.90
3256;DHT22;1640;48.504;9.224;2022-09-13T00:55:55;14.60;99.90
3256;DHT22;1640;48.504;9.224;2022-09-13T00:58:29;14.60;99.90
3256;DHT22;1640;48.504;9.224;2022-09-13T01:01:00;14.60;99.90
3256;DHT22;1640;48.504;9.224;2022-09-13T01:03:32;14.60;99.90
3256;DHT22;1640;48.504;9.224;2022-09-13T01:06:07;14.60;99.90
3256;DHT22;1640;48.504;9.224;2022-09-13T01:08:38;14.60;99.90
3256;DHT22;1640;48.504;9.224;2022-09-13T01:11:09;14.70;99.90
3256;DHT22;1640;48.504;9.224;2022-09-13T01:13:38;14.70;99.90
3256;DHT22;1640;48.504;9.224;2022-09-13T01:16:07;14.70;99.90
3256;DHT22;1640;48.504;9.224;2022-09-13T01:18:35;14.60;99.90
3256;DHT22;1640;48.504;9.224;2022-09-13T01:24:31;14.50;99.90
3256;DHT22;1640;48.504;9.224;2022-09-13T01:27:22;14.40;99.90
3256;DHT22;1640;48.504;9.224;2022-09-13T01:30:15;14.40;99.90
3256;DHT22;1640;48.504;9.224;2022-09-13T01:33:03;14.30;99.90
3256;DHT22;1640;48.504;9.224;2022-09-13T01:35:47;14.20;99.90
3256;DHT22;1640;48.504;9.224;2022-09-13T01:38:27;14.10;99.90
3256;DHT22;1640;48.504;9.224;2022-09-13T01:41:05;13.90;99.90
3256;DHT22;1640;48.504;9.224;2022-09-13T01:43:43;13.90;99.90
3256;DHT22;1640;48.504;9.224;2022-09-13T01:46:16;13.80;99.90
3256;DHT22;1640;48.504;9.224;2022-09-13T01:48:54;13.80;99.90
3256;DHT22;1640;48.504;9.224;2022-09-13T01:51:26;13.80;99.90
3256;DHT22;1640;48.504;9.224;2022-09-13T01:54:06;13.90;99.90
3256;DHT22;1640;48.504;9.224;2022-09-13T01:56:39;13.90;99.90
3256;DHT22;1640;48.504;9.224;2022-09-13T01:59:11;13.90;99.90
3256;DHT22;1640;48.504;9.224;2022-09-13T02:01:45;13.80;99.90
3256;DHT22;1640;48.504;9.224;2022-09-13T02:04:18;13.80;99.90
3256;DHT22;1640;48.504;9.224;2022-09-13T02:06:55;13.80;99.90
3256;DHT22;1640;48.504;9.224;2022-09-13T02:09:29;13.90;99.90
3256;DHT22;1640;48.504;9.224;2022-09-13T02:12:01;13.90;99.90
3256;DHT22;1640;48.504;9.224;2022-09-13T02:14:34;13.90;99.90
3256;DHT22;1640;48.504;9.224;2022-09-13T02:17:06;13.80;99.90
3256;DHT22;1640;48.504;9.224;2022-09-13T02:19:40;13.80;99.90
3256;DHT22;1640;48.504;9.224;2022-09-13T02:22:12;13.70;99.90
3256;DHT22;1640;48.504;9.224;2022-09-13T02:24:45;13.70;99.90
3256;DHT22;1640;48.504;9.224;2022-09-13T02:27:15;13.60;99.90
3256;DHT22;1640;48.504;9.224;2022-09-13T02:29:45;13.50;99.90
3256;DHT22;1640;48.504;9.224;2022-09-13T02:32:18;13.50;99.90
3256;DHT22;1640;48.504;9.224;2022-09-13T02:34:52;13.40;99.90
3256;DHT22;1640;48.504;9.224;2022-09-13T02:37:22;13.40;99.90
3256;DHT22;1640;48.504;9.224;2022-09-13T02:39:54;13.50;99.90
3256;DHT22;1640;48.504;9.224;2022-09-13T02:42:28;13.50;99.90
3256;DHT22;1640;48.504;9.224;2022-09-13T02:44:57;13.50;99.90
3256;DHT22;1640;48.504;9.224;2022-09-13T02:47:44;13.50;99.90
3256;DHT22;1640;48.504;9.224;2022-09-13T02:50:23;13.40;99.90
3256;DHT22;1640;48.504;9.224;2022-09-13T02:53:02;13.40;99.90
3256;DHT22;1640;48.504;9.224;2022-09-13T02:55:39;13.30;99.90
3256;DHT22;1640;48.504;9.224;2022-09-13T02:58:12;13.30;99.90
3256;DHT22;1640;48.504;9.224;2022-09-13T03:00:41;13.30;99.90
3256;DHT22;1640;48.504;9.224;2022-09-13T03:03:13;13.20;99.90
3256;DHT22;1640;48.504;9.224;2022-09-13T03:05:43;13.10;99.90
3256;DHT22;1640;48.504;9.224;2022-09-13T03:08:13;13.10;99.90
3256;DHT22;1640;48.504;9.224;2022-09-13T03:10:50;13.10;99.90
3256;DHT22;1640;48.504;9.224;2022-09-13T03:13:35;13.10;99.90
3256;DHT22;1640;48.504;9.224;2022-09-13T03:16:16;13.10;99.90
3256;DHT22;1640;48.504;9.224;2022-09-13T03:18:56;13.10;99.90
3256;DHT22;1640;48.504;9.224;2022-09-13T03:21:37;13.10;99.90
3256;DHT22;1640;48.504;9.224;2022-09-13T03:24:13;13.10;99.90
3256;DHT22;1640;48.504;9.224;2022-09-13T03:26:52;13.10;99.90
3256;DHT22;1640;48.504;9.224;2022-09-13T03:29:26;13.10;99.90
3256;DHT22;1640;48.504;9.224;2022-09-13T03:32:06;13.10;99.90
3256;DHT22;1640;48.504;9.224;2022-09-13T03:34:47;13.10;99.90
3256;DHT22;1640;48.504;9.224;2022-09-13T03:37:24;13.10;99.90
3256;DHT22;1640;48.504;9.224;2022-09-13T03:39:56;13.00;99.90
3256;DHT22;1640;48.504;9.224;2022-09-13T03:42:31;13.00;99.90
3256;DHT22;1640;48.504;9.224;2022-09-13T03:45:02;13.10;99.90
3256;DHT22;1640;48.504;9.224;2022-09-13T03:47:31;13.10;99.90
3256;DHT22;1640;48.504;9.224;2022-09-13T03:50:03;13.10;99.90
3256;DHT22;1640;48.504;9.224;2022-09-13T03:52:32;13.30;99.90
3256;DHT22;1640;48.504;9.224;2022-09-13T03:55:00;13.30;99.90
3256;DHT22;1640;48.504;9.224;2022-09-13T03:57:27;13.20;99.90
3256;DHT22;1640;48.504;9.224;2022-09-13T03:59:56;13.20;99.90
3256;DHT22;1640;48.504;9.224;2022-09-13T04:02:25;13.10;99.90
3256;DHT22;1640;48.504;9.224;2022-09-13T04:04:52;13.20;99.90
3256;DHT22;1640;48.504;9.224;2022-09-13T04:07:23;13.00;99.90
3256;DHT22;1640;48.504;9.224;2022-09-13T04:09:50;13.00;99.90
3256;DHT22;1640;48.504;9.224;2022-09-13T04:12:18;13.00;99.90
3256;DHT22;1640;48.504;9.224;2022-09-13T04:14:45;13.00;99.90
3256;DHT22;1640;48.504;9.224;2022-09-13T04:17:13;13.00;99.90
3256;DHT22;1640;48.504;9.224;2022-09-13T04:19:41;13.10;99.90
3256;DHT22;1640;48.504;9.224;2022-09-13T04:22:12;13.10;99.90
3256;DHT22;1640;48.504;9.224;2022-09-13T04:24:41;13.10;99.90
3256;DHT22;1640;48.504;9.224;2022-09-13T04:27:09;13.10;99.90
3256;DHT22;1640;48.504;9.224;2022-09-13T04:29:37;13.10;99.90
3256;DHT22;1640;48.504;9.224;2022-09-13T04:32:05;13.10;99.90
3256;DHT22;1640;48.504;9.224;2022-09-13T04:34:32;13.10;99.90
3256;DHT22;1640;48.504;9.224;2022-09-13T04:36:59;13.10;99.90
3256;DHT22;1640;48.504;9.224;2022-09-13T04:39:27;13.00;99.90
3256;DHT22;1640;48.504;9.224;2022-09-13T04:41:56;12.90;99.90
3256;DHT22;1640;48.504;9.224;2022-09-13T04:44:24;12.80;99.90
3256;DHT22;1640;48.504;9.224;2022-09-13T04:46:52;12.90;99.90
3256;DHT22;1640;48.504;9.224;2022-09-13T04:49:21;13.00;99.90
3256;DHT22;1640;48.504;9.224;2022-09-13T04:51:48;13.00;99.90
3256;DHT22;1640;48.504;9.224;2022-09-13T04:54:16;13.00;99.90
3256;DHT22;1640;48.504;9.224;2022-09-13T04:56:44;13.10;99.90
3256;DHT22;1640;48.504;9.224;2022-09-13T04:59:14;13.10;99.90
3256;DHT22;1640;48.504;9.224;2022-09-13T05:01:41;13.10;99.90
3256;DHT22;1640;48.504;9.224;2022-09-13T05:04:09;13.20;99.90
3256;DHT22;1640;48.504;9.224;2022-09-13T05:06:37;13.20;99.90
3256;DHT22;1640;48.504;9.224;2022-09-13T05:09:04;13.30;99.90
3256;DHT22;1640;48.504;9.224;2022-09-13T05:11:32;13.20;99.90
3256;DHT22;1640;48.504;9.224;2022-09-13T05:14:00;13.20;99.90
3256;DHT22;1640;48.504;9.224;2022-09-13T05:16:30;13.10;99.90
3256;DHT22;1640;48.504;9.224;2022-09-13T05:18:58;13.10;99.90
3256;DHT22;1640;48.504;9.224;2022-09-13T05:21:26;13.10;99.90
3256;DHT22;1640;48.504;9.224;2022-09-13T05:23:55;13.10;99.90
3256;DHT22;1640;48.504;9.224;2022-09-13T05:26:24;13.10;99.90
3256;DHT22;1640;48.504;9.224;2022-09-13T05:28:52;13.10;99.90
3256;DHT22;1640;48.504;9.224;2022-09-13T05:31:21;13.00;99.90
3256;DHT22;1640;48.504;9.224;2022-09-13T05:33:54;13.00;99.90
3256;DHT22;1640;48.504;9.224;2022-09-13T05:36:22;13.00;99.90
3256;DHT22;1640;48.504;9.224;2022-09-13T05:38:51;13.10;99.90
3256;DHT22;1640;48.504;9.224;2022-09-13T05:41:18;13.10;99.90
3256;DHT22;1640;48.504;9.224;2022-09-13T05:43:46;13.10;99.90
3256;DHT22;1640;48.504;9.224;2022-09-13T05:46:15;13.10;99.90
3256;DHT22;1640;48.504;9.224;2022-09-13T05:48:43;13.20;99.90
3256;DHT22;1640;48.504;9.224;2022-09-13T05:51:13;13.30;99.90
3256;DHT22;1640;48.504;9.224;2022-09-13T05:53:42;13.20;99.90
3256;DHT22;1640;48.504;9.224;2022-09-13T05:56:11;13.30;99.90
3256;DHT22;1640;48.504;9.224;2022-09-13T05:58:40;13.40;99.90
3256;DHT22;1640;48.504;9.224;2022-09-13T06:01:08;13.40;99.90
3256;DHT22;1640;48.504;9.224;2022-09-13T06:03:36;13.60;99.90
3256;DHT22;1640;48.504;9.224;2022-09-13T06:06:04;13.70;99.90
3256;DHT22;1640;48.504;9.224;2022-09-13T06:08:34;13.70;99.90
3256;DHT22;1640;48.504;9.224;2022-09-13T06:11:03;13.80;99.90
3256;DHT22;1640;48.504;9.224;2022-09-13T06:13:32;13.90;99.90
3256;DHT22;1640;48.504;9.224;2022-09-13T06:16:01;14.00;99.90
3256;DHT22;1640;48.504;9.224;2022-09-13T06:18:29;14.10;99.90
3256;DHT22;1640;48.504;9.224;2022-09-13T06:20:57;14.20;99.90
3256;DHT22;1640;48.504;9.224;2022-09-13T06:23:25;14.20;99.90
3256;DHT22;1640;48.504;9.224;2022-09-13T06:26:02;14.40;99.90
3256;DHT22;1640;48.504;9.224;2022-09-13T06:28:29;14.50;99.90
3256;DHT22;1640;48.504;9.224;2022-09-13T06:31:01;14.60;99.90
3256;DHT22;1640;48.504;9.224;2022-09-13T06:33:29;14.80;99.90
3256;DHT22;1640;48.504;9.224;2022-09-13T06:35:59;14.70;99.90
3256;DHT22;1640;48.504;9.224;2022-09-13T06:38:28;14.80;2.80
3256;DHT22;1640;48.504;9.224;2022-09-13T06:41:03;14.80;6.60
3256;DHT22;1640;48.504;9.224;2022-09-13T06:43:31;14.80;8.30
3256;DHT22;1640;48.504;9.224;2022-09-13T06:46:00;14.80;6.90
3256;DHT22;1640;48.504;9.224;2022-09-13T06:48:30;14.90;5.40
3256;DHT22;1640;48.504;9.224;2022-09-13T06:51:00;14.90;8.60
3256;DHT22;1640;48.504;9.224;2022-09-13T06:53:28;15.00;8.60
3256;DHT22;1640;48.504;9.224;2022-09-13T06:56:02;15.10;11.50
3256;DHT22;1640;48.504;9.224;2022-09-13T06:58:31;15.10;10.90
3256;DHT22;1640;48.504;9.224;2022-09-13T07:01:10;15.20;12.20
3256;DHT22;1640;48.504;9.224;2022-09-13T07:03:39;15.30;14.70
3256;DHT22;1640;48.504;9.224;2022-09-13T07:06:09;15.50;14.80
3256;DHT22;1640;48.504;9.224;2022-09-13T07:08:38;15.50;19.30
3256;DHT22;1640;48.504;9.224;2022-09-13T07:11:08;15.60;21.00
3256;DHT22;1640;48.504;9.224;2022-09-13T07:13:36;15.70;22.40
3256;DHT22;1640;48.504;9.224;2022-09-13T07:16:05;15.80;22.90
3256;DHT22;1640;48.504;9.224;2022-09-13T07:18:33;15.90;27.90
3256;DHT22;1640;48.504;9.224;2022-09-13T07:21:02;16.00;35.70
3256;DHT22;1640;48.504;9.224;2022-09-13T07:23:30;16.10;33.30
3256;DHT22;1640;48.504;9.224;2022-09-13T07:25:58;16.30;36.20
3256;DHT22;1640;48.504;9.224;2022-09-13T07:28:32;16.50;41.90
3256;DHT22;1640;48.504;9.224;2022-09-13T07:31:04;16.70;45.10
3256;DHT22;1640;48.504;9.224;2022-09-13T07:33:32;16.70;45.20
3256;DHT22;1640;48.504;9.224;2022-09-13T07:36:00;16.80;46.10
3256;DHT22;1640;48.504;9.224;2022-09-13T07:38:32;16.80;44.90
3256;DHT22;1640;48.504;9.224;2022-09-13T07:41:00;16.90;46.60
3256;DHT22;1640;48.504;9.224;2022-09-13T07:43:32;17.10;49.00
3256;DHT22;1640;48.504;9.224;2022-09-13T07:46:01;17.20;49.10
3256;DHT22;1640;48.504;9.224;2022-09-13T07:48:30;17.30;52.00
3256;DHT22;1640;48.504;9.224;2022-09-13T07:51:00;17.30;51.80
3256;DHT22;1640;48.504;9.224;2022-09-13T07:53:28;17.40;54.60
3256;DHT22;1640;48.504;9.224;2022-09-13T07:56:00;17.40;52.10
3256;DHT22;1640;48.504;9.224;2022-09-13T07:58:29;17.50;50.60
3256;DHT22;1640;48.504;9.224;2022-09-13T08:01:04;17.60;54.20
3256;DHT22;1640;48.504;9.224;2022-09-13T08:03:32;17.80;55.50
3256;DHT22;1640;48.504;9.224;2022-09-13T08:06:00;18.00;56.70
3256;DHT22;1640;48.504;9.224;2022-09-13T08:08:28;18.10;57.80
3256;DHT22;1640;48.504;9.224;2022-09-13T08:10:56;18.20;58.50
3256;DHT22;1640;48.504;9.224;2022-09-13T08:13:23;18.30;59.50
3256;DHT22;1640;48.504;9.224;2022-09-13T08:15:51;18.50;60.70
3256;DHT22;1640;48.504;9.224;2022-09-13T08:18:20;18.60;60.90
3256;DHT22;1640;48.504;9.224;2022-09-13T08:20:48;18.70;59.30
3256;DHT22;1640;48.504;9.224;2022-09-13T08:23:15;18.80;58.60
3256;DHT22;1640;48.504;9.224;2022-09-13T08:25:43;19.10;59.30
3256;DHT22;1640;48.504;9.224;2022-09-13T08:28:14;19.30;60.30
3256;DHT22;1640;48.504;9.224;2022-09-13T08:30:43;19.50;61.90
3256;DHT22;1640;48.504;9.224;2022-09-13T08:33:11;19.70;62.40
3256;DHT22;1640;48.504;9.224;2022-09-13T08:35:40;19.90;63.40
3256;DHT22;1640;48.504;9.224;2022-09-13T08:38:07;20.20;64.30
3256;DHT22;1640;48.504;9.224;2022-09-13T08:40:40;20.40;65.70
3256;DHT22;1640;48.504;9.224;2022-09-13T08:43:15;20.60;66.30
3256;DHT22;1640;48.504;9.224;2022-09-13T08:45:49;20.80;67.30
3256;DHT22;1640;48.504;9.224;2022-09-13T08:48:21;21.00;69.20
3256;DHT22;1640;48.504;9.224;2022-09-13T08:50:53;21.10;69.00
3256;DHT22;1640;48.504;9.224;2022-09-13T08:53:26;21.30;69.00
3256;DHT22;1640;48.504;9.224;2022-09-13T08:55:59;21.40;69.00
3256;DHT22;1640;48.504;9.224;2022-09-13T08:58:54;21.70;68.80
3256;DHT22;1640;48.504;9.224;2022-09-13T09:01:34;21.70;68.30
3256;DHT22;1640;48.504;9.224;2022-09-13T09:04:12;21.70;67.50
3256;DHT22;1640;48.504;9.224;2022-09-13T09:06:43;21.60;67.90
3256;DHT22;1640;48.504;9.224;2022-09-13T09:09:14;21.70;68.30
3256;DHT22;1640;48.504;9.224;2022-09-13T09:11:47;21.70;67.60
3256;DHT22;1640;48.504;9.224;2022-09-13T09:14:19;21.90;68.00
3256;DHT22;1640;48.504;9.224;2022-09-13T09:16:53;22.10;67.90
3256;DHT22;1640;48.504;9.224;2022-09-13T09:19:25;22.10;68.60
3256;DHT22;1640;48.504;9.224;2022-09-13T09:21:57;22.20;68.30
3256;DHT22;1640;48.504;9.224;2022-09-13T09:24:25;22.40;69.20
3256;DHT22;1640;48.504;9.224;2022-09-13T09:26:53;22.30;69.00
3256;DHT22;1640;48.504;9.224;2022-09-13T09:29:25;22.40;69.00
3256;DHT22;1640;48.504;9.224;2022-09-13T09:32:05;22.40;68.90
3256;DHT22;1640;48.504;9.224;2022-09-13T09:34:47;22.60;69.20
3256;DHT22;1640;48.504;9.224;2022-09-13T09:37:21;22.80;68.80
3256;DHT22;1640;48.504;9.224;2022-09-13T09:39:51;22.80;68.80
3256;DHT22;1640;48.504;9.224;2022-09-13T09:42:21;23.00;68.50
3256;DHT22;1640;48.504;9.224;2022-09-13T09:44:52;23.30;67.50
3256;DHT22;1640;48.504;9.224;2022-09-13T09:47:23;23.70;65.00
3256;DHT22;1640;48.504;9.224;2022-09-13T09:49:56;24.00;65.20
3256;DHT22;1640;48.504;9.224;2022-09-13T09:52:40;24.20;65.60
3256;DHT22;1640;48.504;9.224;2022-09-13T09:55:14;24.50;62.90
3256;DHT22;1640;48.504;9.224;2022-09-13T09:57:50;24.80;59.00
3256;DHT22;1640;48.504;9.224;2022-09-13T10:00:19;25.00;56.70
3256;DHT22;1640;48.504;9.224;2022-09-13T10:02:50;25.20;57.30
3256;DHT22;1640;48.504;9.224;2022-09-13T10:05:18;25.30;58.00
3256;DHT22;1640;48.504;9.224;2022-09-13T10:08:00;25.30;60.00
3256;DHT22;1640;48.504;9.224;2022-09-13T10:10:34;25.30;56.50
3256;DHT22;1640;48.504;9.224;2022-09-13T10:13:04;25.30;54.60
3256;DHT22;1640;48.504;9.224;2022-09-13T10:15:33;25.50;55.10
3256;DHT22;1640;48.504;9.224;2022-09-13T10:18:13;25.60;57.00
3256;DHT22;1640;48.504;9.224;2022-09-13T10:20:42;25.70;60.10
3256;DHT22;1640;48.504;9.224;2022-09-13T10:23:26;25.60;61.30
3256;DHT22;1640;48.504;9.224;2022-09-13T10:26:01;25.50;61.60
3256;DHT22;1640;48.504;9.224;2022-09-13T10:28:30;25.40;60.60
3256;DHT22;1640;48.504;9.224;2022-09-13T10:31:01;25.50;60.00
3256;DHT22;1640;48.504;9.224;2022-09-13T10:33:32;25.60;58.90
3256;DHT22;1640;48.504;9.224;2022-09-13T10:36:02;25.80;59.20
3256;DHT22;1640;48.504;9.224;2022-09-13T10:38:35;25.60;57.80
3256;DHT22;1640;48.504;9.224;2022-09-13T10:41:05;25.60;58.60
3256;DHT22;1640;48.504;9.224;2022-09-13T10:43:33;25.60;58.40
3256;DHT22;1640;48.504;9.224;2022-09-13T10:46:04;25.50;58.50
3256;DHT22;1640;48.504;9.224;2022-09-13T10:48:44;25.40;60.10
3256;DHT22;1640;48.504;9.224;2022-09-13T10:51:28;25.50;57.30
3256;DHT22;1640;48.504;9.224;2022-09-13T10:54:14;25.50;58.00
3256;DHT22;1640;48.504;9.224;2022-09-13T10:56:43;25.60;56.30
3256;DHT22;1640;48.504;9.224;2022-09-13T10:59:22;25.80;55.40
3256;DHT22;1640;48.504;9.224;2022-09-13T11:04:59;25.90;55.90
3256;DHT22;1640;48.504;9.224;2022-09-13T11:07:42;26.00;55.60
3256;DHT22;1640;48.504;9.224;2022-09-13T11:10:20;26.00;54.20
3256;DHT22;1640;48.504;9.224;2022-09-13T11:12:56;26.20;54.60
3256;DHT22;1640;48.504;9.224;2022-09-13T11:15:38;26.50;53.20
3256;DHT22;1640;48.504;9.224;2022-09-13T11:18:23;26.50;51.80
3256;DHT22;1640;48.504;9.224;2022-09-13T11:21:02;26.60;52.90
3256;DHT22;1640;48.504;9.224;2022-09-13T11:23:55;26.70;52.90
3256;DHT22;1640;48.504;9.224;2022-09-13T11:26:51;26.90;50.90
3256;DHT22;1640;48.504;9.224;2022-09-13T11:29:39;27.20;50.90
3256;DHT22;1640;48.504;9.224;2022-09-13T11:32:19;27.40;49.40
3256;DHT22;1640;48.504;9.224;2022-09-13T11:35:13;27.30;48.70
3256;DHT22;1640;48.504;9.224;2022-09-13T11:37:51;27.40;48.50
3256;DHT22;1640;48.504;9.224;2022-09-13T11:40:37;27.20;49.30
3256;DHT22;1640;48.504;9.224;2022-09-13T11:43:37;27.40;47.90
3256;DHT22;1640;48.504;9.224;2022-09-13T11:46:13;27.60;47.10
3256;DHT22;1640;48.504;9.224;2022-09-13T11:49:24;27.60;48.00
3256;DHT22;1640;48.504;9.224;2022-09-13T11:52:01;27.80;46.70
3256;DHT22;1640;48.504;9.224;2022-09-13T11:54:50;28.10;46.80
3256;DHT22;1640;48.504;9.224;2022-09-13T11:57:24;28.20;46.60
3256;DHT22;1640;48.504;9.224;2022-09-13T11:59:56;28.20;46.00
3256;DHT22;1640;48.504;9.224;2022-09-13T12:02:28;28.10;44.70
3256;DHT22;1640;48.504;9.224;2022-09-13T12:05:02;28.20;43.80
3256;DHT22;1640;48.504;9.224;2022-09-13T12:07:34;28.20;45.20
3256;DHT22;1640;48.504;9.224;2022-09-13T12:10:08;28.10;45.30
3256;DHT22;1640;48.504;9.224;2022-09-13T12:12:40;28.40;45.60
3256;DHT22;1640;48.504;9.224;2022-09-13T12:15:14;28.70;43.70
3256;DHT22;1640;48.504;9.224;2022-09-13T12:17:46;29.00;42.50
3256;DHT22;1640;48.504;9.224;2022-09-13T12:20:19;29.00;41.30
3256;DHT22;1640;48.504;9.224;2022-09-13T12:22:50;28.70;41.10
3256;DHT22;1640;48.504;9.224;2022-09-13T12:25:23;28.80;41.30
3256;DHT22;1640;48.504;9.224;2022-09-13T12:27:58;28.90;41.80
3256;DHT22;1640;48.504;9.224;2022-09-13T12:30:38;29.00;41.80
3256;DHT22;1640;48.504;9.224;2022-09-13T12:33:07;29.20;41.00
3256;DHT22;1640;48.504;9.224;2022-09-13T12:35:37;29.00;39.90
3256;DHT22;1640;48.504;9.224;2022-09-13T12:38:20;28.80;40.00
3256;DHT22;1640;48.504;9.224;2022-09-13T12:41:03;29.00;39.50
3256;DHT22;1640;48.504;9.224;2022-09-13T12:46:54;29.00;39.80
3256;DHT22;1640;48.504;9.224;2022-09-13T12:49:33;28.80;41.80
3256;DHT22;1640;48.504;9.224;2022-09-13T12:52:17;28.70;42.60
3256;DHT22;1640;48.504;9.224;2022-09-13T12:57:53;28.60;43.70
3256;DHT22;1640;48.504;9.224;2022-09-13T13:00:24;28.90;41.30
3256;DHT22;1640;48.504;9.224;2022-09-13T13:03:00;29.10;40.60
3256;DHT22;1640;48.504;9.224;2022-09-13T13:05:33;29.20;40.00
3256;DHT22;1640;48.504;9.224;2022-09-13T13:08:04;29.20;40.30
3256;DHT22;1640;48.504;9.224;2022-09-13T13:10:34;29.40;39.50
3256;DHT22;1640;48.504;9.224;2022-09-13T13:13:13;29.40;39.00
3256;DHT22;1640;48.504;9.224;2022-09-13T13:16:01;29.40;40.30
3256;DHT22;1640;48.504;9.224;2022-09-13T13:18:42;29.60;40.40
3256;DHT22;1640;48.504;9.224;2022-09-13T13:21:33;29.80;38.10
3256;DHT22;1640;48.504;9.224;2022-09-13T13:27:38;29.70;38.30
3256;DHT22;1640;48.504;9.224;2022-09-13T13:30:41;29.90;37.20
3256;DHT22;1640;48.504;9.224;2022-09-13T13:33:18;29.80;39.00
3256;DHT22;1640;48.504;9.224;2022-09-13T13:35:47;29.50;38.80
3256;DHT22;1640;48.504;9.224;2022-09-13T13:41:38;29.40;39.00
3256;DHT22;1640;48.504;9.224;2022-09-13T13:50:15;29.40;38.00
3256;DHT22;1640;48.504;9.224;2022-09-13T13:52:53;29.50;38.00
3256;DHT22;1640;48.504;9.224;2022-09-13T13:55:39;29.60;39.00
3256;DHT22;1640;48.504;9.224;2022-09-13T13:58:29;29.60;37.90
3256;DHT22;1640;48.504;9.224;2022-09-13T14:00:59;29.70;38.40
3256;DHT22;1640;48.504;9.224;2022-09-13T14:03:40;30.20;37.50
3256;DHT22;1640;48.504;9.224;2022-09-13T14:06:12;30.10;38.40
3256;DHT22;1640;48.504;9.224;2022-09-13T14:08:53;30.00;41.00
3256;DHT22;1640;48.504;9.224;2022-09-13T14:11:36;29.90;38.70
3256;DHT22;1640;48.504;9.224;2022-09-13T14:19:49;29.90;39.60
3256;DHT22;1640;48.504;9.224;2022-09-13T14:22:21;29.70;40.20
3256;DHT22;1640;48.504;9.224;2022-09-13T14:24:52;29.50;40.00
3256;DHT22;1640;48.504;9.224;2022-09-13T14:27:22;29.30;41.00
3256;DHT22;1640;48.504;9.224;2022-09-13T14:29:51;29.20;41.40
3256;DHT22;1640;48.504;9.224;2022-09-13T14:32:21;29.20;41.70
3256;DHT22;1640;48.504;9.224;2022-09-13T14:34:53;29.30;42.90
3256;DHT22;1640;48.504;9.224;2022-09-13T14:37:25;29.10;42.80
3256;DHT22;1640;48.504;9.224;2022-09-13T14:40:00;29.20;42.80
3256;DHT22;1640;48.504;9.224;2022-09-13T14:42:39;29.10;41.90
3256;DHT22;1640;48.504;9.224;2022-09-13T14:45:12;28.90;42.90
3256;DHT22;1640;48.504;9.224;2022-09-13T14:47:46;28.80;42.60
3256;DHT22;1640;48.504;9.224;2022-09-13T14:50:18;28.50;44.00
3256;DHT22;1640;48.504;9.224;2022-09-13T14:52:48;28.30;45.10
3256;DHT22;1640;48.504;9.224;2022-09-13T14:55:22;28.30;45.90
3256;DHT22;1640;48.504;9.224;2022-09-13T14:57:53;28.10;45.10
3256;DHT22;1640;48.504;9.224;2022-09-13T15:00:24;28.20;45.60
3256;DHT22;1640;48.504;9.224;2022-09-13T15:02:54;28.40;44.70
3256;DHT22;1640;48.504;9.224;2022-09-13T15:05:24;28.50;42.50
3256;DHT22;1640;48.504;9.224;2022-09-13T15:07:53;28.60;42.50
3256;DHT22;1640;48.504;9.224;2022-09-13T15:10:24;28.90;42.30
3256;DHT22;1640;48.504;9.224;2022-09-13T15:12:54;29.20;43.20
3256;DHT22;1640;48.504;9.224;2022-09-13T15:15:31;29.40;42.80
3256;DHT22;1640;48.504;9.224;2022-09-13T15:18:02;29.40;44.80
3256;DHT22;1640;48.504;9.224;2022-09-13T15:20:44;29.40;44.70
3256;DHT22;1640;48.504;9.224;2022-09-13T15:23:14;29.30;44.40
3256;DHT22;1640;48.504;9.224;2022-09-13T15:25:50;29.40;44.50
3256;DHT22;1640;48.504;9.224;2022-09-13T15:28:22;29.50;45.50
3256;DHT22;1640;48.504;9.224;2022-09-13T15:30:50;29.50;45.10
3256;DHT22;1640;48.504;9.224;2022-09-13T15:33:26;29.50;45.10
3256;DHT22;1640;48.504;9.224;2022-09-13T15:36:25;29.60;44.90
3256;DHT22;1640;48.504;9.224;2022-09-13T15:39:02;29.80;43.60
3256;DHT22;1640;48.504;9.224;2022-09-13T15:41:33;29.90;43.80
3256;DHT22;1640;48.504;9.224;2022-09-13T15:44:03;30.10;42.80
3256;DHT22;1640;48.504;9.224;2022-09-13T15:46:31;30.00;43.40
3256;DHT22;1640;48.504;9.224;2022-09-13T15:49:02;29.80;43.80
3256;DHT22;1640;48.504;9.224;2022-09-13T15:51:30;29.50;44.00
3256;DHT22;1640;48.504;9.224;2022-09-13T15:53:58;29.30;45.10
3256;DHT22;1640;48.504;9.224;2022-09-13T15:56:29;29.30;46.10
3256;DHT22;1640;48.504;9.224;2022-09-13T15:58:58;29.20;46.40
3256;DHT22;1640;48.504;9.224;2022-09-13T16:01:26;29.20;46.80
3256;DHT22;1640;48.504;9.224;2022-09-13T16:03:54;29.10;48.00
3256;DHT22;1640;48.504;9.224;2022-09-13T16:06:21;29.00;48.70
3256;DHT22;1640;48.504;9.224;2022-09-13T16:08:49;28.70;50.40
3256;DHT22;1640;48.504;9.224;2022-09-13T16:11:16;28.40;51.30
3256;DHT22;1640;48.504;9.224;2022-09-13T16:13:44;28.20;52.50
3256;DHT22;1640;48.504;9.224;2022-09-13T16:16:13;28.00;54.60
3256;DHT22;1640;48.504;9.224;2022-09-13T16:18:40;27.80;55.60
3256;DHT22;1640;48.504;9.224;2022-09-13T16:21:08;27.60;56.60
3256;DHT22;1640;48.504;9.224;2022-09-13T16:23:35;27.50;58.00
3256;DHT22;1640;48.504;9.224;2022-09-13T16:26:04;27.30;58.40
3256;DHT22;1640;48.504;9.224;2022-09-13T16:28:32;27.20;58.90
3256;DHT22;1640;48.504;9.224;2022-09-13T16:30:59;27.00;60.70
3256;DHT22;1640;48.504;9.224;2022-09-13T16:33:28;26.90;61.30
3256;DHT22;1640;48.504;9.224;2022-09-13T16:35:56;26.80;61.90
3256;DHT22;1640;48.504;9.224;2022-09-13T16:38:24;26.70;62.40
3256;DHT22;1640;48.504;9.224;2022-09-13T16:40:51;26.50;63.90
3256;DHT22;1640;48.504;9.224;2022-09-13T16:43:19;26.50;65.30
3256;DHT22;1640;48.504;9.224;2022-09-13T16:45:46;26.40;66.90
3256;DHT22;1640;48.504;9.224;2022-09-13T16:48:15;26.30;67.30
3256;DHT22;1640;48.504;9.224;2022-09-13T16:50:44;26.30;67.90
3256;DHT22;1640;48.504;9.224;2022-09-13T16:53:11;26.20;68.60
3256;DHT22;1640;48.504;9.224;2022-09-13T16:55:39;26.00;69.30
3256;DHT22;1640;48.504;9.224;2022-09-13T16:58:06;26.00;70.60
3256;DHT22;1640;48.504;9.224;2022-09-13T17:00:33;25.90;70.50
3256;DHT22;1640;48.504;9.224;2022-09-13T17:03:01;25.70;70.80
3256;DHT22;1640;48.504;9.224;2022-09-13T17:05:29;25.60;71.30
3256;DHT22;1640;48.504;9.224;2022-09-13T17:07:58;25.60;71.30